East Pitcairn, New York
Current Conditions -  °F | °C
As of 7:58 AM on Saturday 25 Oct 2014 (Local Time) from KGTB Reporting Station
Overcast Overcast  
Wind Chill: 43°   Ceiling: 3900
Heat Index: 47°   Visibility: 10mi
Dew Point: 44°   Wind: 8mph
Humidity: 91%   Direction: 220°SW
Pressure: 29.79"   Gusts: NA
Location:  44.1447°N, 75.2952°W
Report Text: KGTB 251158Z AUTO 22007KT 10SM BKN039 OVC047 08/07 A2979 RMK AO2 SLP091 7//// T00820068 10084 20065
Loading
Personal Weather Stations






























Interactive Weather Map
Tropical Storm Tracking
New forecast layout! Learn more

10-Day Weather Forecast

Advertisements
Track Severe Weather on mobile